sensor_id;sensor_type;location;lat;lon;timestamp;pressure;altitude;pressure_sealevel;temperature;humidity
21096;BME280;10706;49.036;12.112;2022-09-02T00:01:39;97972.19;;;11.63;77.29
21096;BME280;10706;49.036;12.112;2022-09-02T00:04:18;97955.53;;;11.73;76.88
21096;BME280;10706;49.036;12.112;2022-09-02T00:06:46;97960.81;;;11.67;77.38
21096;BME280;10706;49.036;12.112;2022-09-02T00:09:15;97956.38;;;11.61;77.50
21096;BME280;10706;49.036;12.112;2022-09-02T00:11:43;97957.22;;;11.50;78.65
21096;BME280;10706;49.036;12.112;2022-09-02T00:14:15;97957.44;;;11.48;79.09
21096;BME280;10706;49.036;12.112;2022-09-02T00:16:41;97961.09;;;11.31;80.94
21096;BME280;10706;49.036;12.112;2022-09-02T00:19:09;97951.56;;;11.23;80.65
21096;BME280;10706;49.036;12.112;2022-09-02T00:21:35;97955.28;;;11.22;80.45
21096;BME280;10706;49.036;12.112;2022-09-02T00:24:04;97959.13;;;11.14;80.92
21096;BME280;10706;49.036;12.112;2022-09-02T00:26:30;97956.69;;;11.01;81.68
21096;BME280;10706;49.036;12.112;2022-09-02T00:28:56;97960.28;;;10.95;83.78
21096;BME280;10706;49.036;12.112;2022-09-02T00:31:23;97951.13;;;10.91;83.27
21096;BME280;10706;49.036;12.112;2022-09-02T00:33:49;97950.41;;;10.95;82.26
21096;BME280;10706;49.036;12.112;2022-09-02T00:36:16;97947.63;;;11.14;80.98
21096;BME280;10706;49.036;12.112;2022-09-02T00:38:42;97945.88;;;11.07;81.06
21096;BME280;10706;49.036;12.112;2022-09-02T00:41:10;97935.03;;;11.38;78.65
21096;BME280;10706;49.036;12.112;2022-09-02T00:43:47;97939.09;;;11.40;78.13
21096;BME280;10706;49.036;12.112;2022-09-02T00:46:17;97938.16;;;11.46;78.16
21096;BME280;10706;49.036;12.112;2022-09-02T00:48:55;97939.25;;;11.34;78.03
21096;BME280;10706;49.036;12.112;2022-09-02T00:51:22;97934.47;;;11.36;78.43
21096;BME280;10706;49.036;12.112;2022-09-02T00:53:50;97940.84;;;11.35;78.80
21096;BME280;10706;49.036;12.112;2022-09-02T00:56:24;97938.41;;;11.33;78.83
21096;BME280;10706;49.036;12.112;2022-09-02T00:58:51;97934.28;;;11.54;76.83
21096;BME280;10706;49.036;12.112;2022-09-02T01:01:17;97937.91;;;11.48;78.65
21096;BME280;10706;49.036;12.112;2022-09-02T01:03:43;97936.47;;;11.69;78.22
21096;BME280;10706;49.036;12.112;2022-09-02T01:06:11;97942.00;;;11.51;77.52
21096;BME280;10706;49.036;12.112;2022-09-02T01:08:43;97942.56;;;11.41;78.71
21096;BME280;10706;49.036;12.112;2022-09-02T01:11:10;97945.94;;;11.48;78.54
21096;BME280;10706;49.036;12.112;2022-09-02T01:13:41;97944.69;;;11.39;78.41
21096;BME280;10706;49.036;12.112;2022-09-02T01:18:51;97943.41;;;11.41;78.87
21096;BME280;10706;49.036;12.112;2022-09-02T01:21:18;97942.38;;;11.31;79.20
21096;BME280;10706;49.036;12.112;2022-09-02T01:23:46;97947.00;;;11.35;79.11
21096;BME280;10706;49.036;12.112;2022-09-02T01:26:12;97943.31;;;11.24;80.11
21096;BME280;10706;49.036;12.112;2022-09-02T01:28:38;97940.97;;;11.16;79.82
21096;BME280;10706;49.036;12.112;2022-09-02T01:31:05;97932.97;;;11.16;79.21
21096;BME280;10706;49.036;12.112;2022-09-02T01:33:30;97940.19;;;11.04;80.62
21096;BME280;10706;49.036;12.112;2022-09-02T01:35:56;97938.66;;;11.20;79.57
21096;BME280;10706;49.036;12.112;2022-09-02T01:38:23;97934.28;;;11.02;80.39
21096;BME280;10706;49.036;12.112;2022-09-02T01:40:49;97929.63;;;10.97;80.62
21096;BME280;10706;49.036;12.112;2022-09-02T01:43:23;97932.19;;;11.04;80.44
21096;BME280;10706;49.036;12.112;2022-09-02T01:45:54;97933.44;;;11.01;79.81
21096;BME280;10706;49.036;12.112;2022-09-02T01:48:20;97932.41;;;11.02;79.93
21096;BME280;10706;49.036;12.112;2022-09-02T01:50:54;97936.13;;;10.89;80.90
21096;BME280;10706;49.036;12.112;2022-09-02T01:53:21;97939.94;;;10.82;81.52
21096;BME280;10706;49.036;12.112;2022-09-02T01:55:47;97939.00;;;10.88;80.47
21096;BME280;10706;49.036;12.112;2022-09-02T01:58:13;97938.34;;;10.93;79.95
21096;BME280;10706;49.036;12.112;2022-09-02T02:00:39;97927.75;;;10.98;79.64
21096;BME280;10706;49.036;12.112;2022-09-02T02:03:04;97931.91;;;11.05;80.10
21096;BME280;10706;49.036;12.112;2022-09-02T02:05:31;97933.78;;;11.05;79.66
21096;BME280;10706;49.036;12.112;2022-09-02T02:07:57;97926.47;;;11.00;80.56
21096;BME280;10706;49.036;12.112;2022-09-02T02:10:24;97922.88;;;10.95;80.41
21096;BME280;10706;49.036;12.112;2022-09-02T02:12:50;97920.44;;;10.93;80.57
21096;BME280;10706;49.036;12.112;2022-09-02T02:15:18;97923.94;;;10.82;81.58
21096;BME280;10706;49.036;12.112;2022-09-02T02:17:44;97923.94;;;10.70;81.30
21096;BME280;10706;49.036;12.112;2022-09-02T02:20:14;97925.22;;;10.79;80.75
21096;BME280;10706;49.036;12.112;2022-09-02T02:22:42;97924.16;;;10.80;80.90
21096;BME280;10706;49.036;12.112;2022-09-02T02:25:09;97913.09;;;10.88;80.22
21096;BME280;10706;49.036;12.112;2022-09-02T02:27:35;97917.19;;;10.91;80.22
21096;BME280;10706;49.036;12.112;2022-09-02T02:30:03;97918.00;;;10.92;80.72
21096;BME280;10706;49.036;12.112;2022-09-02T02:32:29;97908.47;;;10.96;79.31
21096;BME280;10706;49.036;12.112;2022-09-02T02:34:56;97917.53;;;10.95;79.29
21096;BME280;10706;49.036;12.112;2022-09-02T02:37:22;97909.63;;;10.88;80.49
21096;BME280;10706;49.036;12.112;2022-09-02T02:39:48;97913.47;;;10.80;80.36
21096;BME280;10706;49.036;12.112;2022-09-02T02:42:14;97911.59;;;10.81;80.48
21096;BME280;10706;49.036;12.112;2022-09-02T02:44:42;97912.66;;;10.68;81.53
21096;BME280;10706;49.036;12.112;2022-09-02T02:47:08;97908.81;;;10.64;82.08
21096;BME280;10706;49.036;12.112;2022-09-02T02:49:40;97908.59;;;10.54;82.10
21096;BME280;10706;49.036;12.112;2022-09-02T02:52:07;97909.88;;;10.63;82.55
21096;BME280;10706;49.036;12.112;2022-09-02T02:54:33;97909.97;;;10.56;81.78
21096;BME280;10706;49.036;12.112;2022-09-02T02:56:59;97911.69;;;10.50;82.21
21096;BME280;10706;49.036;12.112;2022-09-02T02:59:25;97908.22;;;10.50;82.25
21096;BME280;10706;49.036;12.112;2022-09-02T03:01:50;97905.91;;;10.42;83.03
21096;BME280;10706;49.036;12.112;2022-09-02T03:04:17;97907.50;;;10.43;82.43
21096;BME280;10706;49.036;12.112;2022-09-02T03:06:43;97900.44;;;10.37;82.39
21096;BME280;10706;49.036;12.112;2022-09-02T03:09:09;97904.84;;;10.43;82.87
21096;BME280;10706;49.036;12.112;2022-09-02T03:11:34;97907.28;;;10.44;82.44
21096;BME280;10706;49.036;12.112;2022-09-02T03:14:00;97903.56;;;10.45;81.97
21096;BME280;10706;49.036;12.112;2022-09-02T03:16:26;97907.16;;;10.39;82.66
21096;BME280;10706;49.036;12.112;2022-09-02T03:18:52;97895.44;;;10.40;82.52
21096;BME280;10706;49.036;12.112;2022-09-02T03:21:18;97903.69;;;10.39;83.33
21096;BME280;10706;49.036;12.112;2022-09-02T03:23:45;97904.97;;;10.36;82.54
21096;BME280;10706;49.036;12.112;2022-09-02T03:26:18;97901.47;;;10.36;83.13
21096;BME280;10706;49.036;12.112;2022-09-02T03:28:45;97899.00;;;10.34;82.81
21096;BME280;10706;49.036;12.112;2022-09-02T03:31:19;97905.25;;;10.28;82.71
21096;BME280;10706;49.036;12.112;2022-09-02T03:33:45;97908.03;;;10.21;82.52
21096;BME280;10706;49.036;12.112;2022-09-02T03:36:27;97902.78;;;10.15;83.05
21096;BME280;10706;49.036;12.112;2022-09-02T03:38:54;97898.63;;;10.19;83.22
21096;BME280;10706;49.036;12.112;2022-09-02T03:41:20;97894.19;;;10.12;83.73
21096;BME280;10706;49.036;12.112;2022-09-02T03:43:46;97897.66;;;10.13;83.78
21096;BME280;10706;49.036;12.112;2022-09-02T03:46:12;97902.06;;;10.07;83.91
21096;BME280;10706;49.036;12.112;2022-09-02T03:48:39;97897.72;;;9.95;84.47
21096;BME280;10706;49.036;12.112;2022-09-02T03:51:05;97899.81;;;9.92;84.92
21096;BME280;10706;49.036;12.112;2022-09-02T03:53:31;97891.22;;;9.90;85.59
21096;BME280;10706;49.036;12.112;2022-09-02T03:56:09;97889.84;;;9.88;84.89
21096;BME280;10706;49.036;12.112;2022-09-02T03:58:39;97885.31;;;9.88;85.43
21096;BME280;10706;49.036;12.112;2022-09-02T04:01:05;97893.53;;;9.87;84.54
21096;BME280;10706;49.036;12.112;2022-09-02T04:03:31;97883.13;;;9.85;85.46
21096;BME280;10706;49.036;12.112;2022-09-02T04:05:58;97886.94;;;9.89;85.17
21096;BME280;10706;49.036;12.112;2022-09-02T04:08:24;97875.94;;;9.98;84.11
21096;BME280;10706;49.036;12.112;2022-09-02T04:10:50;97878.38;;;9.99;83.92
21096;BME280;10706;49.036;12.112;2022-09-02T04:13:16;97876.44;;;10.06;83.73
21096;BME280;10706;49.036;12.112;2022-09-02T04:15:43;97877.09;;;10.02;83.56
21096;BME280;10706;49.036;12.112;2022-09-02T04:18:13;97876.88;;;10.03;83.78
21096;BME280;10706;49.036;12.112;2022-09-02T04:20:40;97880.00;;;10.00;83.57
21096;BME280;10706;49.036;12.112;2022-09-02T04:23:07;97881.56;;;10.08;83.88
21096;BME280;10706;49.036;12.112;2022-09-02T04:25:33;97876.91;;;10.15;84.42
21096;BME280;10706;49.036;12.112;2022-09-02T04:28:02;97881.44;;;10.15;83.27
21096;BME280;10706;49.036;12.112;2022-09-02T04:30:28;97879.91;;;10.07;83.53
21096;BME280;10706;49.036;12.112;2022-09-02T04:32:54;97884.81;;;10.10;83.61
21096;BME280;10706;49.036;12.112;2022-09-02T04:35:19;97886.53;;;10.04;83.62
21096;BME280;10706;49.036;12.112;2022-09-02T04:37:45;97883.28;;;10.02;84.51
21096;BME280;10706;49.036;12.112;2022-09-02T04:40:13;97889.19;;;10.04;83.08
21096;BME280;10706;49.036;12.112;2022-09-02T04:42:40;97882.59;;;10.07;83.30
21096;BME280;10706;49.036;12.112;2022-09-02T04:45:06;97897.66;;;10.01;83.58
21096;BME280;10706;49.036;12.112;2022-09-02T04:47:32;97889.19;;;10.04;83.61
21096;BME280;10706;49.036;12.112;2022-09-02T04:49:58;97889.00;;;10.18;83.91
21096;BME280;10706;49.036;12.112;2022-09-02T04:52:24;97876.84;;;10.34;83.22
21096;BME280;10706;49.036;12.112;2022-09-02T04:54:50;97887.03;;;10.25;83.40
21096;BME280;10706;49.036;12.112;2022-09-02T04:57:16;97888.63;;;10.14;83.21
21096;BME280;10706;49.036;12.112;2022-09-02T04:59:42;97885.03;;;10.08;82.83
21096;BME280;10706;49.036;12.112;2022-09-02T05:02:08;97894.19;;;10.12;83.52
21096;BME280;10706;49.036;12.112;2022-09-02T05:04:35;97890.22;;;10.03;83.75
21096;BME280;10706;49.036;12.112;2022-09-02T05:07:01;97894.75;;;10.03;84.36
21096;BME280;10706;49.036;12.112;2022-09-02T05:09:29;97902.41;;;9.99;84.33
21096;BME280;10706;49.036;12.112;2022-09-02T05:11:55;97897.72;;;9.95;85.57
21096;BME280;10706;49.036;12.112;2022-09-02T05:14:26;97898.56;;;9.95;84.32
21096;BME280;10706;49.036;12.112;2022-09-02T05:16:52;97910.03;;;9.96;84.51
21096;BME280;10706;49.036;12.112;2022-09-02T05:19:20;97902.34;;;10.18;83.85
21096;BME280;10706;49.036;12.112;2022-09-02T05:21:49;97903.28;;;10.23;83.34
21096;BME280;10706;49.036;12.112;2022-09-02T05:24:16;97907.91;;;10.28;83.08
21096;BME280;10706;49.036;12.112;2022-09-02T05:26:42;97906.84;;;10.47;82.82
21096;BME280;10706;49.036;12.112;2022-09-02T05:29:10;97909.97;;;10.56;82.07
21096;BME280;10706;49.036;12.112;2022-09-02T05:31:37;97911.56;;;10.45;82.87
21096;BME280;10706;49.036;12.112;2022-09-02T05:34:04;97907.28;;;10.44;83.27
21096;BME280;10706;49.036;12.112;2022-09-02T05:36:30;97906.41;;;10.74;81.66
21096;BME280;10706;49.036;12.112;2022-09-02T05:38:58;97906.16;;;10.87;80.94
21096;BME280;10706;49.036;12.112;2022-09-02T05:41:25;97900.34;;;10.91;79.78
21096;BME280;10706;49.036;12.112;2022-09-02T05:43:53;97906.38;;;11.09;80.02
21096;BME280;10706;49.036;12.112;2022-09-02T05:46:22;97908.22;;;11.09;80.53
21096;BME280;10706;49.036;12.112;2022-09-02T05:48:48;97912.06;;;11.13;79.24
21096;BME280;10706;49.036;12.112;2022-09-02T05:51:45;97908.66;;;11.29;78.89
21096;BME280;10706;49.036;12.112;2022-09-02T05:54:19;97900.19;;;11.33;78.99
21096;BME280;10706;49.036;12.112;2022-09-02T05:56:48;97901.63;;;11.52;78.24
21096;BME280;10706;49.036;12.112;2022-09-02T05:59:14;97900.56;;;11.65;77.50
21096;BME280;10706;49.036;12.112;2022-09-02T06:01:40;97903.56;;;11.68;77.34
21096;BME280;10706;49.036;12.112;2022-09-02T06:04:07;97897.59;;;11.90;76.79
21096;BME280;10706;49.036;12.112;2022-09-02T06:06:33;97893.84;;;11.91;77.11
21096;BME280;10706;49.036;12.112;2022-09-02T06:09:04;97900.84;;;11.92;77.02
21096;BME280;10706;49.036;12.112;2022-09-02T06:11:31;97896.75;;;11.90;77.44
21096;BME280;10706;49.036;12.112;2022-09-02T06:13:57;97898.91;;;12.04;76.29
21096;BME280;10706;49.036;12.112;2022-09-02T06:16:22;97899.25;;;12.08;76.11
21096;BME280;10706;49.036;12.112;2022-09-02T06:18:49;97889.06;;;12.22;76.20
21096;BME280;10706;49.036;12.112;2022-09-02T06:21:16;97889.22;;;12.32;77.02
21096;BME280;10706;49.036;12.112;2022-09-02T06:23:42;97893.59;;;12.38;76.42
21096;BME280;10706;49.036;12.112;2022-09-02T06:26:14;97885.31;;;12.57;75.13
21096;BME280;10706;49.036;12.112;2022-09-02T06:28:40;97892.13;;;12.64;75.66
21096;BME280;10706;49.036;12.112;2022-09-02T06:31:14;97898.53;;;12.80;75.09
21096;BME280;10706;49.036;12.112;2022-09-02T06:33:43;97893.41;;;12.79;74.87
21096;BME280;10706;49.036;12.112;2022-09-02T06:36:15;97900.66;;;12.78;74.80
21096;BME280;10706;49.036;12.112;2022-09-02T06:38:44;97894.28;;;13.01;74.49
21096;BME280;10706;49.036;12.112;2022-09-02T06:41:13;97894.75;;;12.98;74.27
21096;BME280;10706;49.036;12.112;2022-09-02T06:43:39;97895.41;;;13.06;74.23
21096;BME280;10706;49.036;12.112;2022-09-02T06:46:06;97890.13;;;13.11;74.17
21096;BME280;10706;49.036;12.112;2022-09-02T06:48:32;97889.44;;;13.20;73.58
21096;BME280;10706;49.036;12.112;2022-09-02T06:50:58;97891.53;;;13.35;73.81
21096;BME280;10706;49.036;12.112;2022-09-02T06:53:26;97890.91;;;13.50;72.73
21096;BME280;10706;49.036;12.112;2022-09-02T06:55:51;97896.06;;;13.57;71.86
21096;BME280;10706;49.036;12.112;2022-09-02T06:58:17;97878.75;;;13.65;72.29
21096;BME280;10706;49.036;12.112;2022-09-02T07:00:43;97893.13;;;13.80;72.43
21096;BME280;10706;49.036;12.112;2022-09-02T07:03:10;97890.91;;;13.99;71.80
21096;BME280;10706;49.036;12.112;2022-09-02T07:06:13;97893.72;;;14.15;71.01
21096;BME280;10706;49.036;12.112;2022-09-02T07:08:41;97884.88;;;14.14;70.90
21096;BME280;10706;49.036;12.112;2022-09-02T07:11:24;97885.88;;;14.35;70.53
21096;BME280;10706;49.036;12.112;2022-09-02T07:13:50;97886.50;;;14.48;70.94
21096;BME280;10706;49.036;12.112;2022-09-02T07:16:18;97894.75;;;14.68;70.65
21096;BME280;10706;49.036;12.112;2022-09-02T07:18:44;97897.56;;;14.84;70.01
21096;BME280;10706;49.036;12.112;2022-09-02T07:21:11;97898.19;;;14.96;67.56
21096;BME280;10706;49.036;12.112;2022-09-02T07:23:37;97893.28;;;14.88;69.98
21096;BME280;10706;49.036;12.112;2022-09-02T07:26:03;97883.69;;;15.02;66.91
21096;BME280;10706;49.036;12.112;2022-09-02T07:28:29;97886.41;;;15.07;66.12
21096;BME280;10706;49.036;12.112;2022-09-02T07:30:55;97893.53;;;15.34;66.82
21096;BME280;10706;49.036;12.112;2022-09-02T07:33:22;97892.47;;;15.40;66.84
21096;BME280;10706;49.036;12.112;2022-09-02T07:35:48;97882.31;;;15.58;64.73
21096;BME280;10706;49.036;12.112;2022-09-02T07:38:15;97889.06;;;15.60;63.80
21096;BME280;10706;49.036;12.112;2022-09-02T07:40:41;97882.31;;;15.58;65.81
21096;BME280;10706;49.036;12.112;2022-09-02T07:43:09;97887.25;;;15.76;64.12
21096;BME280;10706;49.036;12.112;2022-09-02T07:45:42;97885.44;;;16.07;62.83
21096;BME280;10706;49.036;12.112;2022-09-02T07:48:08;97888.44;;;16.16;61.66
21096;BME280;10706;49.036;12.112;2022-09-02T07:50:35;97882.50;;;16.19;62.04
21096;BME280;10706;49.036;12.112;2022-09-02T07:53:02;97878.72;;;16.15;61.79
21096;BME280;10706;49.036;12.112;2022-09-02T07:55:31;97874.94;;;16.62;60.63
21096;BME280;10706;49.036;12.112;2022-09-02T07:57:59;97879.28;;;16.53;61.33
21096;BME280;10706;49.036;12.112;2022-09-02T08:00:25;97878.47;;;16.52;61.16
21096;BME280;10706;49.036;12.112;2022-09-02T08:02:55;97883.59;;;16.49;61.21
21096;BME280;10706;49.036;12.112;2022-09-02T08:05:22;97883.31;;;16.50;60.60
21096;BME280;10706;49.036;12.112;2022-09-02T08:07:48;97887.91;;;16.70;59.55
21096;BME280;10706;49.036;12.112;2022-09-02T08:10:14;97880.06;;;16.79;61.34
21096;BME280;10706;49.036;12.112;2022-09-02T08:12:42;97879.25;;;16.74;62.01
21096;BME280;10706;49.036;12.112;2022-09-02T08:15:15;97886.81;;;16.77;60.67
21096;BME280;10706;49.036;12.112;2022-09-02T08:17:41;97887.38;;;16.84;60.00
21096;BME280;10706;49.036;12.112;2022-09-02T08:20:09;97887.09;;;16.96;60.24
21096;BME280;10706;49.036;12.112;2022-09-02T08:22:36;97876.03;;;16.97;61.30
21096;BME280;10706;49.036;12.112;2022-09-02T08:25:03;97879.78;;;17.06;57.02
21096;BME280;10706;49.036;12.112;2022-09-02T08:27:29;97877.56;;;17.19;59.17
21096;BME280;10706;49.036;12.112;2022-09-02T08:29:57;97875.13;;;17.27;52.42
21096;BME280;10706;49.036;12.112;2022-09-02T08:32:23;97876.69;;;17.39;51.52
21096;BME280;10706;49.036;12.112;2022-09-02T08:34:49;97870.44;;;17.48;49.83
21096;BME280;10706;49.036;12.112;2022-09-02T08:37:15;97872.78;;;17.71;52.01
21096;BME280;10706;49.036;12.112;2022-09-02T08:39:44;97880.03;;;17.85;52.91
21096;BME280;10706;49.036;12.112;2022-09-02T08:42:31;97872.69;;;17.91;52.65
21096;BME280;10706;49.036;12.112;2022-09-02T08:48:01;97876.09;;;18.07;55.40
21096;BME280;10706;49.036;12.112;2022-09-02T08:50:30;97871.13;;;18.24;56.01
21096;BME280;10706;49.036;12.112;2022-09-02T08:53:29;97862.31;;;18.43;54.25
21096;BME280;10706;49.036;12.112;2022-09-02T08:55:58;97866.13;;;18.42;53.68
21096;BME280;10706;49.036;12.112;2022-09-02T08:58:37;97869.25;;;18.54;52.02
21096;BME280;10706;49.036;12.112;2022-09-02T09:07:25;97861.06;;;18.64;50.08
21096;BME280;10706;49.036;12.112;2022-09-02T09:12:58;97854.03;;;18.63;50.89
21096;BME280;10706;49.036;12.112;2022-09-02T09:18:12;97844.03;;;18.93;47.15
21096;BME280;10706;49.036;12.112;2022-09-02T09:20:42;97842.66;;;18.96;45.90
21096;BME280;10706;49.036;12.112;2022-09-02T09:25:58;97834.59;;;19.15;43.59
21096;BME280;10706;49.036;12.112;2022-09-02T09:28:29;97832.78;;;19.29;46.25
21096;BME280;10706;49.036;12.112;2022-09-02T09:30:58;97833.41;;;19.45;44.35
21096;BME280;10706;49.036;12.112;2022-09-02T09:33:25;97832.81;;;19.91;46.24
21096;BME280;10706;49.036;12.112;2022-09-02T09:35:53;97834.44;;;20.25;43.95
21096;BME280;10706;49.036;12.112;2022-09-02T09:38:32;97834.81;;;20.70;42.83
21096;BME280;10706;49.036;12.112;2022-09-02T09:41:20;97824.97;;;20.88;41.15
21096;BME280;10706;49.036;12.112;2022-09-02T09:43:49;97826.41;;;20.53;41.85
21096;BME280;10706;49.036;12.112;2022-09-02T09:46:29;97826.38;;;20.72;46.60
21096;BME280;10706;49.036;12.112;2022-09-02T09:48:59;97823.88;;;21.31;43.03
21096;BME280;10706;49.036;12.112;2022-09-02T09:51:28;97821.06;;;21.50;41.00
21096;BME280;10706;49.036;12.112;2022-09-02T09:54:14;97821.66;;;21.33;42.12
21096;BME280;10706;49.036;12.112;2022-09-02T09:56:40;97817.25;;;20.95;39.74
21096;BME280;10706;49.036;12.112;2022-09-02T09:59:35;97814.72;;;21.13;41.10
21096;BME280;10706;49.036;12.112;2022-09-02T10:01:57;97814.72;;;20.85;41.58
21096;BME280;10706;49.036;12.112;2022-09-02T10:04:31;97819.25;;;20.43;42.25
21096;BME280;10706;49.036;12.112;2022-09-02T10:06:58;97806.97;;;20.65;41.78
21096;BME280;10706;49.036;12.112;2022-09-02T10:09:34;97811.97;;;20.25;44.81
21096;BME280;10706;49.036;12.112;2022-09-02T10:12:12;97816.59;;;20.24;43.79
21096;BME280;10706;49.036;12.112;2022-09-02T10:14:39;97805.13;;;19.94;43.19
21096;BME280;10706;49.036;12.112;2022-09-02T10:17:30;97803.94;;;19.81;44.73
21096;BME280;10706;49.036;12.112;2022-09-02T10:23:16;97805.72;;;19.72;45.65
21096;BME280;10706;49.036;12.112;2022-09-02T10:26:36;97806.44;;;20.16;45.23
21096;BME280;10706;49.036;12.112;2022-09-02T10:35:03;97796.84;;;20.51;42.97
21096;BME280;10706;49.036;12.112;2022-09-02T10:40:55;97799.19;;;20.25;42.96
21096;BME280;10706;49.036;12.112;2022-09-02T10:47:25;97794.44;;;19.84;45.32
21096;BME280;10706;49.036;12.112;2022-09-02T11:01:56;97777.31;;;21.24;39.73
21096;BME280;10706;49.036;12.112;2022-09-02T11:07:04;97765.22;;;21.44;38.74
21096;BME280;10706;49.036;12.112;2022-09-02T11:09:53;97754.41;;;21.16;37.65
21096;BME280;10706;49.036;12.112;2022-09-02T11:12:37;97753.22;;;20.67;37.99
21096;BME280;10706;49.036;12.112;2022-09-02T11:15:27;97756.13;;;21.12;38.99
21096;BME280;10706;49.036;12.112;2022-09-02T11:21:35;97752.91;;;21.60;40.74
21096;BME280;10706;49.036;12.112;2022-09-02T11:24:38;97749.91;;;21.84;40.32
21096;BME280;10706;49.036;12.112;2022-09-02T11:27:53;97752.09;;;21.60;40.95
21096;BME280;10706;49.036;12.112;2022-09-02T11:30:52;97750.16;;;21.74;39.61
21096;BME280;10706;49.036;12.112;2022-09-02T11:36:24;97742.22;;;21.27;41.58
21096;BME280;10706;49.036;12.112;2022-09-02T11:38:58;97742.38;;;21.45;41.10
21096;BME280;10706;49.036;12.112;2022-09-02T11:44:56;97727.06;;;22.17;40.89
21096;BME280;10706;49.036;12.112;2022-09-02T11:50:42;97723.69;;;23.57;37.49
21096;BME280;10706;49.036;12.112;2022-09-02T11:53:29;97727.06;;;24.06;35.17
21096;BME280;10706;49.036;12.112;2022-09-02T11:56:19;97720.81;;;24.62;34.51
21096;BME280;10706;49.036;12.112;2022-09-02T11:58:48;97723.25;;;24.93;34.62
21096;BME280;10706;49.036;12.112;2022-09-02T12:01:37;97715.75;;;24.34;34.59
21096;BME280;10706;49.036;12.112;2022-09-02T12:06:36;97711.53;;;24.45;39.09
21096;BME280;10706;49.036;12.112;2022-09-02T12:09:07;97718.28;;;25.16;35.04
21096;BME280;10706;49.036;12.112;2022-09-02T12:11:45;97708.97;;;24.88;34.00
21096;BME280;10706;49.036;12.112;2022-09-02T12:17:07;97712.63;;;26.18;32.86
21096;BME280;10706;49.036;12.112;2022-09-02T12:19:42;97697.81;;;26.77;32.75
21096;BME280;10706;49.036;12.112;2022-09-02T12:24:55;97701.53;;;27.62;30.43
21096;BME280;10706;49.036;12.112;2022-09-02T12:27:32;97690.00;;;29.24;28.39
21096;BME280;10706;49.036;12.112;2022-09-02T12:29:59;97687.72;;;28.95;26.93
21096;BME280;10706;49.036;12.112;2022-09-02T12:44:00;97680.75;;;28.65;27.54
21096;BME280;10706;49.036;12.112;2022-09-02T12:46:47;97668.22;;;28.84;28.02
21096;BME280;10706;49.036;12.112;2022-09-02T12:55:23;97664.81;;;29.06;26.69
21096;BME280;10706;49.036;12.112;2022-09-02T12:57:54;97662.88;;;30.04;26.47
21096;BME280;10706;49.036;12.112;2022-09-02T13:06:16;97663.97;;;28.86;25.65
21096;BME280;10706;49.036;12.112;2022-09-02T13:09:28;97660.41;;;27.90;25.93
21096;BME280;10706;49.036;12.112;2022-09-02T13:29:58;97632.81;;;26.16;29.37
21096;BME280;10706;49.036;12.112;2022-09-02T13:32:31;97631.22;;;26.76;28.14
21096;BME280;10706;49.036;12.112;2022-09-02T13:35:03;97636.63;;;27.82;28.04
21096;BME280;10706;49.036;12.112;2022-09-02T13:37:39;97633.97;;;28.46;26.70
21096;BME280;10706;49.036;12.112;2022-09-02T13:40:24;97633.06;;;28.10;26.66
21096;BME280;10706;49.036;12.112;2022-09-02T13:42:55;97626.25;;;28.52;26.87
21096;BME280;10706;49.036;12.112;2022-09-02T13:45:28;97629.25;;;29.33;25.38
21096;BME280;10706;49.036;12.112;2022-09-02T13:48:01;97629.59;;;29.71;25.12
21096;BME280;10706;49.036;12.112;2022-09-02T13:50:31;97629.16;;;28.11;27.22
21096;BME280;10706;49.036;12.112;2022-09-02T13:53:07;97637.56;;;27.30;28.91
21096;BME280;10706;49.036;12.112;2022-09-02T13:55:34;97633.50;;;26.25;31.43
21096;BME280;10706;49.036;12.112;2022-09-02T13:58:05;97633.75;;;25.11;29.56
21096;BME280;10706;49.036;12.112;2022-09-02T14:00:39;97627.66;;;23.52;34.10
21096;BME280;10706;49.036;12.112;2022-09-02T14:03:18;97636.28;;;23.89;33.81
21096;BME280;10706;49.036;12.112;2022-09-02T14:05:48;97628.03;;;24.06;34.94
21096;BME280;10706;49.036;12.112;2022-09-02T14:08:19;97622.44;;;24.41;33.41
21096;BME280;10706;49.036;12.112;2022-09-02T14:10:47;97617.78;;;24.41;32.34
21096;BME280;10706;49.036;12.112;2022-09-02T14:13:15;97617.88;;;24.24;32.74
21096;BME280;10706;49.036;12.112;2022-09-02T14:15:41;97607.56;;;23.91;35.33
21096;BME280;10706;49.036;12.112;2022-09-02T14:18:20;97618.13;;;24.01;34.96
21096;BME280;10706;49.036;12.112;2022-09-02T14:21:19;97607.03;;;24.06;33.30
21096;BME280;10706;49.036;12.112;2022-09-02T14:23:50;97600.81;;;23.97;33.28
21096;BME280;10706;49.036;12.112;2022-09-02T14:26:35;97597.00;;;23.81;34.72
21096;BME280;10706;49.036;12.112;2022-09-02T14:29:06;97597.25;;;24.05;35.05
21096;BME280;10706;49.036;12.112;2022-09-02T14:31:33;97589.66;;;23.55;33.53
21096;BME280;10706;49.036;12.112;2022-09-02T14:36:48;97598.19;;;23.10;37.78
21096;BME280;10706;49.036;12.112;2022-09-02T14:39:16;97585.31;;;22.67;35.85
21096;BME280;10706;49.036;12.112;2022-09-02T14:41:51;97587.69;;;22.34;36.94
21096;BME280;10706;49.036;12.112;2022-09-02T14:44:28;97594.06;;;22.29;37.28
21096;BME280;10706;49.036;12.112;2022-09-02T14:47:03;97580.94;;;22.00;38.27
21096;BME280;10706;49.036;12.112;2022-09-02T14:49:36;97583.19;;;21.98;38.97
21096;BME280;10706;49.036;12.112;2022-09-02T14:53:02;97577.06;;;21.83;38.00
21096;BME280;10706;49.036;12.112;2022-09-02T14:55:45;97580.81;;;22.05;38.41
21096;BME280;10706;49.036;12.112;2022-09-02T14:58:16;97579.88;;;22.09;40.50
21096;BME280;10706;49.036;12.112;2022-09-02T15:01:08;97577.31;;;22.04;38.99
21096;BME280;10706;49.036;12.112;2022-09-02T15:03:37;97574.44;;;22.09;37.36
21096;BME280;10706;49.036;12.112;2022-09-02T15:06:04;97569.44;;;22.03;39.17